• Join FlightAware (Why Join?)
  • Login
  • US Flag 
11:29PM EDT


 

Airport Tracker/Info


-or-


 

Live Flight TrackerFlight Track Log ✈ RPA4937 ✈ 03-May-2013 ✈ KBWI - KEWR

Flight Track Log - Related Links

Times and Time Zones

All times are in EDT time to prevent confusion due to time zone crossing. See the RPA4937 flight status page for this flight to view local times or setup timezone preferences in your user account.

Time Position Orientation Groundspeed Altitude Reporting Facility
EDT Latitude Longitude Course Direction KTS MPH feet Rate Location/Type
05:47AM 39.1667 -76.6000 46° Northeast 184 212 2,600  Level Potomac TRACON
05:48AM 39.1667 -76.5167 90° East 212 244 4,900 2,280 Climbing Potomac TRACON
05:49AM 39.1500 -76.3162 90° East  Level FlightAware Approximate
05:49AM 39.1833 -76.4500 72° East 234 269 7,200  Level Potomac TRACON
05:50AM 39.1605 -76.2027 46° Northeast  Level FlightAware Approximate
05:50AM 39.2333 -76.3833 46° Northeast 230 265 9,700  Level Potomac TRACON
05:51AM 39.2280 -76.1220 38° Northeast  Level FlightAware Approximate
05:51AM 39.2667 -76.3167 57° Northeast 252 290 11,100  Level Potomac TRACON
05:52AM 39.2948 -76.0403 46° Northeast  Level FlightAware Approximate
05:53AM 39.3667 -76.1333 55° Northeast 282 325 11,000  Level Philadelphia TRACON
05:54AM 39.4167 -76.0500 52° Northeast 285 328 11,000  Level Philadelphia TRACON
05:55AM 39.4667 -75.9667 52° Northeast 285 328 11,000  Level Philadelphia TRACON
05:56AM 39.5167 -75.8833 52° Northeast 285 328 11,000  Level Philadelphia TRACON
05:57AM 39.5667 -75.8167 46° Northeast 283 326 11,000  Level Philadelphia TRACON
05:58AM 39.6000 -75.7333 63° Northeast 281 323 11,000  Level Philadelphia TRACON
05:59AM 39.6500 -75.6333 57° Northeast 276 318 11,000  Level Philadelphia TRACON
06:00AM 39.6667 -75.5667 72° East 276 318 11,000  Level Philadelphia TRACON
06:01AM 39.7167 -75.4833 52° Northeast 275 316 11,000  Level Philadelphia TRACON
06:02AM 39.7500 -75.3833 67° East 275 316 11,000 -240 Level Philadelphia TRACON
06:03AM 39.8000 -75.3000 52° Northeast 279 321 10,500 -540 Descending Philadelphia TRACON
06:04AM 39.8333 -75.2000 67° East 284 327 10,000 -240 Descending Philadelphia TRACON
06:05AM 39.8667 -75.1167 62° Northeast 272 313 10,000  Level Philadelphia TRACON
06:06AM 39.9000 -75.0333 62° Northeast 265 305 10,000 -420 Level Philadelphia TRACON
06:07AM 39.9333 -74.9500 62° Northeast 231 266 9,300 -780 Descending Philadelphia TRACON
06:08AM 39.9667 -74.8833 57° Northeast 233 268 8,500 -780 Descending Philadelphia TRACON
06:08AM 39.9833 -74.8667 37° Northeast 235 270 8,300 -840 Descending New York TRACON
06:09AM 40.0167 -74.8000 57° Northeast 240 276 7,500 -600 Descending New York TRACON
06:10AM 40.0500 -74.7167 62° Northeast 241 277 7,100 -240 Descending New York TRACON
06:11AM 40.1000 -74.6500 46° Northeast 246 283 7,000 -60 Descending New York TRACON
06:12AM 40.1500 -74.5833 46° Northeast 242 278 7,000  Level New York TRACON
06:13AM 40.1833 -74.5167 57° Northeast 240 276 7,000 -480 Level New York TRACON
06:14AM 40.2333 -74.4500 45° Northeast 241 277 6,100 -960 Descending New York TRACON
06:15AM 40.2833 -74.4167 27° Northeast 233 268 5,100 -600 Descending New York TRACON
06:16AM 40.3333 -74.4000 14° North 228 262 5,000 -60 Descending New York TRACON
06:17AM 40.3833 -74.3667 27° Northeast 219 252 5,000 -360 Level New York TRACON
06:18AM 40.4333 -74.3333 27° Northeast 218 251 4,400 -900 Descending New York TRACON
06:19AM 40.4833 -74.3000 27° Northeast 176 203 3,300 -720 Descending New York TRACON
06:20AM 40.5333 -74.2667 27° Northeast 158 182 3,000 -300 Descending New York TRACON
06:21AM 40.5667 -74.2500 21° North 134 154 2,700 -480 Descending New York TRACON
06:22AM 40.6000 -74.2333 21° North 123 142 2,100 -720 Descending New York TRACON